Time;durP1;ratioP1;P1;durP2;ratioP2;P2;SDS_P1;SDS_P2;PMS_P1;PMS_P2;Temp;Humidity;BMP_temperature;BMP_pressure;BME280_temperature;BME280_humidity;BME280_pressure;Samples;Min_cycle;Max_cycle;Signal;HPM_P1;HPM_P2
2023/04/28 00:02:24;;;;;;;;;;;10.40;76.00;;;-151.14;100.00;62537.16;4976675;28;19928;-87
2023/04/28 00:04:53;;;;;;;;;;;10.40;76.10;;;-151.14;100.00;62537.16;4992204;28;19921;-87
2023/04/28 00:07:21;;;;;;;;;;;10.40;76.00;;;-151.14;100.00;62537.16;5008839;28;19922;-86
2023/04/28 00:09:49;;;;;;;;;;;10.40;76.20;;;-151.14;100.00;62537.16;4992510;28;19932;-86
2023/04/28 00:12:17;;;;;;;;;;;10.40;76.40;;;-151.14;100.00;62537.16;4976523;28;19928;-86
2023/04/28 00:14:45;;;;;;;;;;;10.40;76.30;;;-151.14;100.00;62537.16;4992094;28;19979;-86
2023/04/28 00:17:15;;;;;;;;;;;10.40;76.10;;;-151.14;100.00;62537.16;4972386;28;19922;-86
2023/04/28 00:19:43;;;;;;;;;;;10.40;76.30;;;-151.14;100.00;62537.16;4957008;28;20230;-85
2023/04/28 00:22:11;;;;;;;;;;;10.40;76.40;;;-151.14;100.00;62537.16;4957055;28;19929;-86
2023/04/28 00:24:40;;;;;;;;;;;10.40;76.30;;;-151.14;100.00;62537.16;4956321;28;20117;-86
2023/04/28 00:27:08;;;;;;;;;;;10.40;76.30;;;-151.14;100.00;62537.16;4956854;28;19922;-87
2023/04/28 00:29:37;;;;;;;;;;;10.40;76.20;;;-151.14;100.00;62537.16;4956861;28;20235;-87
2023/04/28 00:32:05;;;;;;;;;;;10.40;76.10;;;-151.14;100.00;62537.16;4956922;28;19922;-87
2023/04/28 00:34:36;;;;;;;;;;;10.40;76.00;;;-151.14;100.00;62537.16;4956302;28;20249;-86
2023/04/28 00:37:04;;;;;;;;;;;10.40;76.10;;;-151.14;100.00;62537.16;4972901;28;20129;-86
2023/04/28 00:39:32;;;;;;;;;;;10.40;76.00;;;-151.14;100.00;62537.16;4956621;28;19922;-87
2023/04/28 00:42:00;;;;;;;;;;;10.40;76.20;;;-151.14;100.00;62537.16;4972713;28;19932;-87
2023/04/28 00:44:28;;;;;;;;;;;10.40;76.20;;;-151.14;100.00;62537.16;4956168;28;19929;-86
2023/04/28 00:46:58;;;;;;;;;;;10.40;76.40;;;-151.14;100.00;62537.16;4956455;28;20129;-87
2023/04/28 00:49:26;;;;;;;;;;;10.40;76.60;;;-151.14;100.00;62537.16;4956670;28;19945;-86
2023/04/28 00:51:55;;;;;;;;;;;10.40;76.30;;;-151.14;100.00;62537.16;4972491;28;19922;-86
2023/04/28 00:54:23;;;;;;;;;;;10.40;76.20;;;-151.14;100.00;62537.16;4955934;28;19930;-87
2023/04/28 00:56:51;;;;;;;;;;;10.40;76.20;;;-151.14;100.00;62537.16;4956447;28;19922;-87
2023/04/28 00:59:19;;;;;;;;;;;10.40;76.40;;;-151.14;100.00;62537.16;4972401;28;19923;-87
2023/04/28 01:01:47;;;;;;;;;;;10.40;76.10;;;-151.14;100.00;62537.16;4972501;28;19922;-87
2023/04/28 01:04:16;;;;;;;;;;;10.40;76.00;;;-151.14;100.00;62537.16;4955767;28;19922;-87
2023/04/28 01:06:44;;;;;;;;;;;10.40;76.30;;;-151.14;100.00;62537.16;4956121;28;20210;-86
2023/04/28 01:09:14;;;;;;;;;;;10.30;76.50;;;-151.14;100.00;62537.16;4972408;28;19922;-87
2023/04/28 01:11:42;;;;;;;;;;;10.30;76.30;;;-151.14;100.00;62537.16;4972240;28;19928;-87
2023/04/28 01:14:12;;;;;;;;;;;10.30;76.40;;;-151.14;100.00;62537.16;4971839;28;19928;-86
2023/04/28 01:16:42;;;;;;;;;;;10.30;76.30;;;-151.14;100.00;62537.16;4972231;28;19929;-87
2023/04/28 01:19:13;;;;;;;;;;;10.30;76.20;;;-151.14;100.00;62537.16;4972335;28;19923;-87
2023/04/28 01:21:41;;;;;;;;;;;10.30;76.50;;;-151.14;100.00;62537.16;4956078;28;20214;-87
2023/04/28 01:24:20;;;;;;;;;;;10.30;76.40;;;-151.14;100.00;62537.16;4955570;28;19923;-87
2023/04/28 01:26:49;;;;;;;;;;;10.30;76.60;;;-151.14;100.00;62537.16;4971714;28;19930;-86
2023/04/28 01:29:16;;;;;;;;;;;10.30;76.20;;;-151.14;100.00;62537.16;4956021;28;19929;-86
2023/04/28 01:31:45;;;;;;;;;;;10.30;76.60;;;-151.14;100.00;62537.16;4972029;28;19930;-86
2023/04/28 01:34:13;;;;;;;;;;;10.30;76.60;;;-151.14;100.00;62537.16;4955494;28;19945;-87
2023/04/28 01:36:41;;;;;;;;;;;10.30;76.80;;;-151.14;100.00;62537.16;4971802;28;19922;-85
2023/04/28 01:39:11;;;;;;;;;;;10.30;76.40;;;-151.14;100.00;62537.16;4971851;28;20157;-85
2023/04/28 01:41:43;;;;;;;;;;;10.30;76.20;;;-151.14;100.00;62537.16;4974948;28;19929;-86
2023/04/28 01:44:11;;;;;;;;;;;10.30;76.60;;;-151.14;100.00;62537.16;4958442;28;19923;-86
2023/04/28 01:46:40;;;;;;;;;;;10.30;77.00;;;-151.14;100.00;62537.16;4958757;28;19922;-87
2023/04/28 01:49:08;;;;;;;;;;;10.30;76.30;;;-151.14;100.00;62537.16;4974938;28;20116;-87
2023/04/28 01:51:36;;;;;;;;;;;10.30;76.40;;;-151.14;100.00;62537.16;4958818;28;19922;-86
2023/04/28 01:54:04;;;;;;;;;;;10.30;76.30;;;-151.14;100.00;62537.16;4958425;28;19922;-85
2023/04/28 01:56:32;;;;;;;;;;;10.30;76.60;;;-151.14;100.00;62537.16;4974901;28;19928;-87
2023/04/28 01:59:02;;;;;;;;;;;10.30;76.70;;;-151.14;100.00;62537.16;4958974;28;19928;-87
2023/04/28 02:01:30;;;;;;;;;;;10.30;76.80;;;-151.14;100.00;62537.16;4958668;28;19922;-87
2023/04/28 02:03:59;;;;;;;;;;;10.30;76.60;;;-151.14;100.00;62537.16;4974836;28;19922;-87
2023/04/28 02:06:27;;;;;;;;;;;10.30;76.70;;;-151.14;100.00;62537.16;4958208;28;19928;-87
2023/04/28 02:08:55;;;;;;;;;;;10.30;76.60;;;-151.14;100.00;62537.16;4958824;28;19926;-87
2023/04/28 02:11:23;;;;;;;;;;;10.30;76.70;;;-151.14;100.00;62537.16;4958714;28;19922;-87
2023/04/28 02:13:56;;;;;;;;;;;10.30;77.00;;;-151.14;100.00;62537.16;4974866;28;19922;-86
2023/04/28 02:16:25;;;;;;;;;;;10.30;76.90;;;-151.14;100.00;62537.16;4957930;28;19921;-86
2023/04/28 02:18:53;;;;;;;;;;;10.30;77.00;;;-151.14;100.00;62537.16;4972411;28;19922;-87
2023/04/28 02:21:21;;;;;;;;;;;10.30;76.80;;;-151.14;100.00;62537.16;5007187;28;19928;-86
2023/04/28 02:23:50;;;;;;;;;;;10.20;76.90;;;-151.14;100.00;62537.16;4974690;28;19922;-87
2023/04/28 02:26:18;;;;;;;;;;;10.20;76.80;;;-151.14;100.00;62537.16;4990047;28;19922;-86
2023/04/28 02:28:47;;;;;;;;;;;10.20;76.90;;;-151.14;100.00;62537.16;4990720;28;19952;-86
2023/04/28 02:31:16;;;;;;;;;;;10.20;76.90;;;-151.14;100.00;62537.16;4974311;28;19928;-86
2023/04/28 02:33:45;;;;;;;;;;;10.20;77.00;;;-151.14;100.00;62537.16;4990758;28;19929;-86
2023/04/28 02:36:13;;;;;;;;;;;10.20;76.90;;;-151.14;100.00;62537.16;4973153;28;19921;-86
2023/04/28 02:38:41;;;;;;;;;;;10.20;76.90;;;-151.14;100.00;62537.16;4973445;28;19929;-85
2023/04/28 02:41:15;;;;;;;;;;;10.20;76.70;;;-151.14;100.00;62537.16;4963976;28;19922;-87
2023/04/28 02:43:47;;;;;;;;;;;10.20;76.50;;;-151.14;100.00;62537.16;5001558;28;19928;-86
2023/04/28 02:46:15;;;;;;;;;;;10.20;76.60;;;-151.14;100.00;62537.16;4990038;28;20113;-86
2023/04/28 02:48:44;;;;;;;;;;;10.20;76.70;;;-151.14;100.00;62537.16;4990297;28;19922;-87
2023/04/28 02:51:14;;;;;;;;;;;10.20;76.70;;;-151.14;100.00;62537.16;4990335;28;19922;-86
2023/04/28 02:53:42;;;;;;;;;;;10.20;76.90;;;-151.14;100.00;62537.16;4989734;28;20213;-86
2023/04/28 02:56:10;;;;;;;;;;;10.20;76.90;;;-151.14;100.00;62537.16;4989676;28;19921;-86
2023/04/28 02:58:38;;;;;;;;;;;10.20;77.00;;;-151.14;100.00;62537.16;4990294;28;20229;-87
2023/04/28 03:01:06;;;;;;;;;;;10.20;76.60;;;-151.14;100.00;62537.16;4992920;28;20213;-88
2023/04/28 03:03:34;;;;;;;;;;;10.20;76.90;;;-151.14;100.00;62537.16;4977478;28;19922;-86
2023/04/28 03:06:04;;;;;;;;;;;10.20;76.90;;;-151.14;100.00;62537.16;4992887;28;19928;-85
2023/04/28 03:08:33;;;;;;;;;;;10.20;76.80;;;-151.14;100.00;62537.16;4993261;28;19926;-86
2023/04/28 03:11:01;;;;;;;;;;;10.20;76.80;;;-151.14;100.00;62537.16;4977301;28;20090;-86
2023/04/28 03:13:29;;;;;;;;;;;10.20;77.10;;;-151.14;100.00;62537.16;4993456;28;19944;-85
2023/04/28 03:15:57;;;;;;;;;;;10.20;77.10;;;-151.14;100.00;62537.16;4993069;28;19922;-86
2023/04/28 03:18:25;;;;;;;;;;;10.20;77.10;;;-151.14;100.00;62537.16;5009623;28;20118;-86
2023/04/28 03:20:53;;;;;;;;;;;10.20;77.00;;;-151.14;100.00;62537.16;5009705;28;19928;-86
2023/04/28 03:23:23;;;;;;;;;;;10.20;76.80;;;-151.14;100.00;62537.16;4993461;28;19928;-86
2023/04/28 03:25:51;;;;;;;;;;;10.20;76.90;;;-151.14;100.00;62537.16;4992700;28;20370;-87
2023/04/28 03:28:19;;;;;;;;;;;10.10;77.00;;;-151.14;100.00;62537.16;4992944;28;19952;-87
2023/04/28 03:30:47;;;;;;;;;;;10.20;77.10;;;-151.14;100.00;62537.16;4993194;28;19922;-88
2023/04/28 03:33:15;;;;;;;;;;;10.20;77.10;;;-151.14;100.00;62537.16;4993122;28;19937;-88
2023/04/28 03:35:43;;;;;;;;;;;10.20;77.10;;;-151.14;100.00;62537.16;4992642;28;19928;-87
2023/04/28 03:38:11;;;;;;;;;;;10.20;77.20;;;-151.14;100.00;62537.16;4992955;28;19928;-87
2023/04/28 03:40:41;;;;;;;;;;;10.20;76.90;;;-151.14;100.00;62537.16;4993036;28;19936;-86
2023/04/28 03:43:12;;;;;;;;;;;10.20;76.80;;;-151.14;100.00;62537.16;4994139;28;19928;-86
2023/04/28 03:45:53;;;;;;;;;;;10.20;77.00;;;-151.14;100.00;62537.16;4992461;28;19928;-86
2023/04/28 03:48:21;;;;;;;;;;;10.10;77.00;;;-151.14;100.00;62537.16;4976491;28;19922;-87
2023/04/28 03:50:49;;;;;;;;;;;10.20;77.10;;;-151.14;100.00;62537.16;4992914;28;20148;-86
2023/04/28 03:53:18;;;;;;;;;;;10.20;77.00;;;-151.14;100.00;62537.16;5009117;28;19922;-86
2023/04/28 03:55:48;;;;;;;;;;;10.20;77.10;;;-151.14;100.00;62537.16;4992343;28;19922;-86
2023/04/28 03:58:16;;;;;;;;;;;10.10;76.80;;;-151.14;100.00;62537.16;4992727;28;19921;-87
2023/04/28 04:00:44;;;;;;;;;;;10.10;76.90;;;-151.14;100.00;62537.16;4992753;28;19926;-86
2023/04/28 04:03:12;;;;;;;;;;;10.20;77.00;;;-151.14;100.00;62537.16;4992724;28;19928;-87
2023/04/28 04:05:40;;;;;;;;;;;10.10;76.80;;;-151.14;100.00;62537.16;4992420;28;20114;-87
2023/04/28 04:08:09;;;;;;;;;;;10.20;76.80;;;-151.14;100.00;62537.16;5008826;28;19922;-87
2023/04/28 04:10:37;;;;;;;;;;;10.20;76.90;;;-151.14;100.00;62537.16;4992179;28;19922;-86
2023/04/28 04:13:06;;;;;;;;;;;10.20;77.00;;;-151.14;100.00;62537.16;5008313;28;20205;-86
2023/04/28 04:15:34;;;;;;;;;;;10.10;76.90;;;-151.14;100.00;62537.16;5008453;28;19928;-87
2023/04/28 04:18:02;;;;;;;;;;;10.20;77.00;;;-151.14;100.00;62537.16;4976082;28;19922;-87
2023/04/28 04:20:42;;;;;;;;;;;10.20;77.00;;;-151.14;100.00;62537.16;5008963;28;19922;-86
2023/04/28 04:23:10;;;;;;;;;;;10.20;76.90;;;-151.14;100.00;62537.16;4992131;28;19922;-86
2023/04/28 04:25:38;;;;;;;;;;;10.10;77.00;;;-151.14;100.00;62537.16;4991965;28;19922;-86
2023/04/28 04:28:08;;;;;;;;;;;10.20;76.70;;;-151.14;100.00;62537.16;4992199;28;19922;-86
2023/04/28 04:30:36;;;;;;;;;;;10.20;76.60;;;-151.14;100.00;62537.16;4976259;28;19921;-86
2023/04/28 04:33:06;;;;;;;;;;;10.20;76.80;;;-151.14;100.00;62537.16;4992259;28;19921;-87
2023/04/28 04:35:34;;;;;;;;;;;10.20;76.90;;;-151.14;100.00;62537.16;4991739;28;19922;-87
2023/04/28 04:38:03;;;;;;;;;;;10.20;76.80;;;-151.14;100.00;62537.16;4975855;28;19921;-86
2023/04/28 04:40:31;;;;;;;;;;;10.20;76.90;;;-151.14;100.00;62537.16;5007187;28;19937;-85
2023/04/28 04:43:00;;;;;;;;;;;10.20;76.70;;;-151.14;100.00;62537.16;4992037;28;19922;-87
2023/04/28 04:45:32;;;;;;;;;;;10.20;76.80;;;-151.14;100.00;62537.16;4991510;28;19930;-87
2023/04/28 04:48:01;;;;;;;;;;;10.20;76.70;;;-151.14;100.00;62537.16;4991817;28;19922;-87
2023/04/28 04:50:30;;;;;;;;;;;10.20;76.70;;;-151.14;100.00;62537.16;5008469;28;20095;-87
2023/04/28 04:52:58;;;;;;;;;;;10.20;76.50;;;-151.14;100.00;62537.16;4975724;28;19922;-87
2023/04/28 04:55:27;;;;;;;;;;;10.20;76.40;;;-151.14;100.00;62537.16;4975100;28;19944;-87
2023/04/28 04:57:55;;;;;;;;;;;10.30;76.40;;;-151.14;100.00;62537.16;4991739;28;19928;-87
2023/04/28 05:00:47;;;;;;;;;;;10.30;76.50;;;-151.14;100.00;62537.16;4973704;28;19982;-86
2023/04/28 05:03:15;;;;;;;;;;;10.30;76.30;;;-151.14;100.00;62537.16;4991757;28;19922;-87
2023/04/28 05:05:44;;;;;;;;;;;10.40;75.80;;;-151.14;100.00;62537.16;4975082;28;19921;-86
2023/04/28 05:08:18;;;;;;;;;;;10.40;75.50;;;-151.14;100.00;62537.16;4991662;28;19937;-87
2023/04/28 05:10:47;;;;;;;;;;;10.40;76.00;;;-151.14;100.00;62537.16;4975523;28;20225;-87
2023/04/28 05:13:15;;;;;;;;;;;10.40;76.20;;;-151.14;100.00;62537.16;4991511;28;19928;-87
2023/04/28 05:15:44;;;;;;;;;;;10.40;76.60;;;-151.14;100.00;62537.16;4991026;28;19922;-87
2023/04/28 05:18:26;;;;;;;;;;;10.50;75.90;;;-151.14;100.00;62537.16;4991555;28;19921;-86
2023/04/28 05:20:54;;;;;;;;;;;10.50;76.40;;;-151.14;100.00;62537.16;4991557;28;19928;-86
2023/04/28 05:23:23;;;;;;;;;;;10.60;76.10;;;-151.14;100.00;62537.16;4974687;28;19928;-86
2023/04/28 05:25:52;;;;;;;;;;;10.70;76.10;;;-151.14;100.00;62537.16;4974722;28;20122;-86
2023/04/28 05:28:20;;;;;;;;;;;10.70;75.80;;;-151.14;100.00;62537.16;4975071;28;19922;-86
2023/04/28 05:30:50;;;;;;;;;;;10.80;75.70;;;-151.14;100.00;62537.16;4991380;28;19922;-87
2023/04/28 05:33:18;;;;;;;;;;;10.90;75.50;;;-151.14;100.00;62537.16;4991461;28;20228;-87
2023/04/28 05:35:47;;;;;;;;;;;11.00;75.30;;;-151.14;100.00;62537.16;4990658;28;19922;-86
2023/04/28 05:38:16;;;;;;;;;;;11.00;75.20;;;-151.14;100.00;62537.16;4991313;28;19928;-88
2023/04/28 05:40:45;;;;;;;;;;;11.10;74.90;;;-151.14;100.00;62537.16;4975154;28;19921;-87
2023/04/28 05:43:14;;;;;;;;;;;11.20;75.00;;;-151.14;100.00;62537.16;4975062;28;19922;-87
2023/04/28 05:45:42;;;;;;;;;;;11.20;75.00;;;-151.14;100.00;62537.16;4974494;28;19926;-87
2023/04/28 05:48:11;;;;;;;;;;;11.30;74.90;;;-151.14;100.00;62537.16;4975140;28;19922;-88
2023/04/28 05:50:41;;;;;;;;;;;11.30;74.80;;;-151.14;100.00;62537.16;4975169;28;19925;-86
2023/04/28 05:53:12;;;;;;;;;;;11.40;74.40;;;-151.14;100.00;62537.16;4991145;28;19929;-88
2023/04/28 05:55:40;;;;;;;;;;;11.40;74.30;;;-151.14;100.00;62537.16;4974400;28;19922;-88
2023/04/28 05:58:08;;;;;;;;;;;11.40;74.10;;;-151.14;100.00;62537.16;4990973;28;19922;-87
2023/04/28 06:00:36;;;;;;;;;;;11.40;74.00;;;-151.14;100.00;62537.16;4991070;28;19922;-88
2023/04/28 06:03:04;;;;;;;;;;;11.50;74.10;;;-151.14;100.00;62537.16;4974901;28;20209;-88
2023/04/28 06:05:32;;;;;;;;;;;11.50;74.10;;;-151.14;100.00;62537.16;4973968;28;19926;-88
2023/04/28 06:08:02;;;;;;;;;;;11.50;74.10;;;-151.14;100.00;62537.16;4974787;28;19922;-88
2023/04/28 06:10:33;;;;;;;;;;;11.50;73.80;;;-151.14;100.00;62537.16;4974760;28;19932;-88
2023/04/28 06:13:03;;;;;;;;;;;11.60;73.80;;;-151.14;100.00;62537.16;4974884;28;19944;-87
2023/04/28 06:15:31;;;;;;;;;;;11.60;73.60;;;-151.14;100.00;62537.16;4974229;28;20221;-87
2023/04/28 06:18:00;;;;;;;;;;;11.60;73.60;;;-151.14;100.00;62537.16;4974631;28;19922;-87
2023/04/28 06:20:28;;;;;;;;;;;11.60;73.50;;;-151.14;100.00;62537.16;4971291;28;19929;-88
2023/04/28 06:22:56;;;;;;;;;;;11.70;73.50;;;-151.14;100.00;62537.16;4955419;28;19922;-88
2023/04/28 06:25:24;;;;;;;;;;;11.70;73.30;;;-151.14;100.00;62537.16;4954912;28;20241;-88
2023/04/28 06:27:54;;;;;;;;;;;11.70;73.30;;;-151.14;100.00;62537.16;4955335;28;19922;-88
2023/04/28 06:30:23;;;;;;;;;;;11.70;73.20;;;-151.14;100.00;62537.16;4955154;28;20244;-87
2023/04/28 06:32:51;;;;;;;;;;;11.70;73.20;;;-151.14;100.00;62537.16;4955329;28;19929;-87
2023/04/28 06:35:19;;;;;;;;;;;11.70;73.30;;;-151.14;100.00;62537.16;4966412;28;20098;-88
2023/04/28 06:37:47;;;;;;;;;;;11.70;73.30;;;-151.14;100.00;62537.16;4977879;28;19922;-87
2023/04/28 06:40:16;;;;;;;;;;;11.70;73.00;;;-151.14;100.00;62537.16;4977865;28;19922;-88
2023/04/28 06:42:51;;;;;;;;;;;11.70;73.00;;;-151.14;100.00;62537.16;4994119;28;19928;-87
2023/04/28 06:45:26;;;;;;;;;;;11.60;73.10;;;-151.14;100.00;62537.16;5009735;28;19930;-87
2023/04/28 06:47:55;;;;;;;;;;;11.50;73.30;;;-151.14;100.00;62537.16;4977674;28;19922;-88
2023/04/28 06:50:24;;;;;;;;;;;11.40;73.60;;;-151.14;100.00;62537.16;4977535;28;20099;-87
2023/04/28 06:52:52;;;;;;;;;;;11.40;73.90;;;-151.14;100.00;62537.16;4993935;28;20034;-88
2023/04/28 06:55:20;;;;;;;;;;;11.30;74.10;;;-151.14;100.00;62537.16;4993103;28;20232;-87
2023/04/28 06:57:48;;;;;;;;;;;11.20;74.40;;;-151.14;100.00;62537.16;4977565;28;19921;-87
2023/04/28 07:00:17;;;;;;;;;;;11.20;74.60;;;-151.14;100.00;62537.16;4977505;28;19936;-89
2023/04/28 07:02:46;;;;;;;;;;;11.10;74.80;;;18.08;100.00;62537.16;4977555;28;19922;-86
2023/04/28 07:05:14;;;;;;;;;;;11.10;75.00;;;-151.14;100.00;62537.16;4993094;28;19928;-87
2023/04/28 07:07:42;;;;;;;;;;;11.00;75.10;;;9.96;nan;96763.81;4977400;28;19944;-88
2023/04/28 07:10:10;;;;;;;;;;;11.00;75.20;;;9.92;nan;96770.88;4977194;28;19922;-88
2023/04/28 07:12:39;;;;;;;;;;;11.00;75.20;;;9.89;nan;96772.22;4977529;28;19929;-89
2023/04/28 07:15:08;;;;;;;;;;;10.90;75.30;;;9.87;nan;96773.56;4992863;28;19928;-88
2023/04/28 07:17:36;;;;;;;;;;;10.90;75.40;;;9.83;nan;96767.72;4993277;28;19930;-88
2023/04/28 07:20:07;;;;;;;;;;;10.90;76.40;;;9.82;nan;96775.13;5009729;28;19922;-88
2023/04/28 07:22:35;;;;;;;;;;;10.80;75.60;;;9.81;nan;96765.25;5009774;28;19922;-88
2023/04/28 07:25:03;;;;;;;;;;;10.80;75.70;;;9.80;nan;96774.53;4992857;28;19921;-88
2023/04/28 07:27:31;;;;;;;;;;;10.80;75.60;;;9.80;nan;96771.81;4977093;28;19928;-88
2023/04/28 07:29:59;;;;;;;;;;;10.80;75.70;;;9.78;nan;96771.22;4977016;28;19922;-88
2023/04/28 07:32:28;;;;;;;;;;;10.80;75.70;;;9.79;nan;96777.53;4977067;28;20117;-88
2023/04/28 07:34:56;;;;;;;;;;;10.80;75.80;;;9.79;nan;96772.88;4976329;28;19922;-87
2023/04/28 07:37:25;;;;;;;;;;;10.80;75.80;;;9.79;nan;96767.41;4993046;28;19928;-88
2023/04/28 07:39:53;;;;;;;;;;;10.80;75.90;;;9.79;nan;96764.69;4976931;28;19921;-88
2023/04/28 07:42:21;;;;;;;;;;;10.80;75.90;;;9.79;nan;96770.16;4993079;28;20345;-88
2023/04/28 07:44:49;;;;;;;;;;;10.80;75.80;;;9.79;nan;96767.41;4976300;28;19921;-88
2023/04/28 07:47:17;;;;;;;;;;;10.80;76.00;;;9.79;nan;96772.88;4992702;28;20391;-88
2023/04/28 07:49:45;;;;;;;;;;;10.80;75.80;;;9.79;nan;96766.59;4993249;28;19922;-87
2023/04/28 07:52:14;;;;;;;;;;;10.80;75.80;;;9.81;nan;96778.13;4993059;28;19922;-87
2023/04/28 07:54:43;;;;;;;;;;;10.80;75.80;;;9.81;nan;96770.72;4992471;28;19925;-87
2023/04/28 07:57:11;;;;;;;;;;;10.80;75.80;;;9.81;nan;96770.72;4993000;28;20206;-87
2023/04/28 07:59:39;;;;;;;;;;;10.90;75.80;;;9.82;nan;96777.84;4992937;28;19922;-87
2023/04/28 08:02:07;;;;;;;;;;;10.80;75.60;;;9.85;nan;96770.25;4973328;28;19922;-88
2023/04/28 08:04:36;;;;;;;;;;;10.90;75.80;;;9.85;nan;96764.75;4969937;28;20125;-87
2023/04/28 08:07:04;;;;;;;;;;;10.90;75.30;;;9.85;nan;96765.59;4974425;28;19921;-86
2023/04/28 08:09:33;;;;;;;;;;;10.90;75.40;;;9.89;nan;96765.91;5009202;28;20229;-87
2023/04/28 08:12:03;;;;;;;;;;;10.90;75.40;;;9.89;nan;96765.91;4992476;28;20232;-88
2023/04/28 08:14:31;;;;;;;;;;;10.90;75.30;;;9.89;nan;96769.47;4992322;28;19928;-88
2023/04/28 08:16:59;;;;;;;;;;;10.90;75.30;;;9.87;nan;96766.16;4994214;28;19921;-87
2023/04/28 08:19:27;;;;;;;;;;;10.90;75.50;;;9.94;nan;96757.78;5012216;28;19943;-87
2023/04/28 08:21:56;;;;;;;;;;;10.90;75.40;;;9.98;nan;96764.41;4995712;28;19928;-88
2023/04/28 08:24:24;;;;;;;;;;;11.00;75.20;;;10.00;nan;96773.19;4994887;28;20225;-87
2023/04/28 08:26:52;;;;;;;;;;;11.00;74.90;;;10.01;nan;96774.81;4995667;28;19921;-87
2023/04/28 08:29:21;;;;;;;;;;;11.00;74.90;;;9.98;nan;96765.22;5012094;28;19921;-87
2023/04/28 08:31:50;;;;;;;;;;;11.00;74.90;;;9.98;nan;96764.41;4995392;28;19921;-88
2023/04/28 08:34:18;;;;;;;;;;;11.00;74.80;;;9.97;nan;96770.94;4979081;28;19935;-87
2023/04/28 08:36:46;;;;;;;;;;;11.00;74.80;;;9.99;nan;96774.25;5012888;28;19921;-87
2023/04/28 08:39:14;;;;;;;;;;;11.00;74.90;;;9.97;nan;96768.22;5011951;28;19936;-87
2023/04/28 08:41:42;;;;;;;;;;;11.00;74.90;;;9.98;nan;96772.59;4995507;28;19943;-88
2023/04/28 08:44:10;;;;;;;;;;;11.00;74.90;;;9.96;nan;96767.38;4995099;28;19922;-87
2023/04/28 08:46:41;;;;;;;;;;;11.00;75.00;;;9.96;nan;96764.63;4995262;28;19928;-87
2023/04/28 08:49:13;;;;;;;;;;;11.00;75.00;;;9.95;nan;96765.72;4995529;28;19928;-87
2023/04/28 08:51:46;;;;;;;;;;;11.00;75.00;;;9.96;nan;96761.09;4995398;28;20098;-88
2023/04/28 08:54:15;;;;;;;;;;;11.00;75.00;;;10.00;nan;96758.66;5011170;28;19922;-87
2023/04/28 08:56:44;;;;;;;;;;;11.00;75.00;;;10.02;nan;96746.38;4994975;28;19943;-87
2023/04/28 08:59:12;;;;;;;;;;;11.00;74.80;;;10.04;nan;96768.03;4994878;28;19925;-87
2023/04/28 09:01:42;;;;;;;;;;;11.00;74.70;;;10.04;nan;96763.38;4978986;28;19944;-88
2023/04/28 09:04:10;;;;;;;;;;;11.00;74.70;;;10.05;nan;96759.56;5010985;28;20235;-87
2023/04/28 09:06:38;;;;;;;;;;;11.10;74.80;;;10.07;nan;96756.59;4995042;28;19921;-88
2023/04/28 09:09:23;;;;;;;;;;;11.10;74.70;;;10.08;nan;96745.38;4994546;28;19928;-88
2023/04/28 09:11:55;;;;;;;;;;;11.10;74.60;;;10.09;nan;96741.56;4995132;28;20334;-87
2023/04/28 09:14:23;;;;;;;;;;;11.10;74.50;;;10.10;nan;96756.91;4994718;28;19929;-88
2023/04/28 09:16:53;;;;;;;;;;;11.10;74.40;;;10.11;nan;96754.97;4994673;28;19921;-87
2023/04/28 09:19:21;;;;;;;;;;;11.10;74.40;;;10.12;nan;96756.63;5011450;28;20121;-87
2023/04/28 09:21:53;;;;;;;;;;;11.10;74.40;;;10.11;nan;96752.25;4994527;28;21178;-87
2023/04/28 09:24:28;;;;;;;;;;;11.10;74.20;;;10.11;nan;96752.25;5010892;28;20239;-89
2023/04/28 09:26:56;;;;;;;;;;;11.10;74.50;;;10.11;nan;96744.88;5010863;28;19988;-89
2023/04/28 09:29:24;;;;;;;;;;;11.10;74.40;;;10.10;nan;96742.38;4994599;28;19928;-88
2023/04/28 09:31:54;;;;;;;;;;;11.10;74.30;;;10.12;nan;96754.75;4993254;28;19928;-88
2023/04/28 09:34:22;;;;;;;;;;;11.10;74.20;;;10.12;nan;96743.81;4994273;28;20209;-88
2023/04/28 09:36:50;;;;;;;;;;;11.20;74.20;;;10.12;nan;96743.81;5010789;28;19928;-87
2023/04/28 09:39:29;;;;;;;;;;;11.20;74.30;;;10.11;nan;96747.63;4994489;28;19927;-87
2023/04/28 09:41:57;;;;;;;;;;;11.20;74.30;;;10.12;nan;96735.59;4978298;28;19928;-87
2023/04/28 09:44:25;;;;;;;;;;;11.20;74.30;;;10.13;nan;96733.66;4993985;28;19921;-87
2023/04/28 09:46:55;;;;;;;;;;;11.20;74.20;;;10.12;nan;96738.34;4978290;28;20209;-88
2023/04/28 09:49:23;;;;;;;;;;;11.20;74.10;;;10.09;nan;96732.53;4978278;28;19922;-87
2023/04/28 09:51:51;;;;;;;;;;;11.10;74.10;;;10.08;nan;96723.50;5010893;28;19922;-87
2023/04/28 09:54:19;;;;;;;;;;;11.10;74.20;;;10.08;nan;96728.97;4993772;28;19922;-87
2023/04/28 09:56:47;;;;;;;;;;;11.10;74.30;;;10.07;nan;96719.09;4994309;28;19932;-86
2023/04/28 09:59:15;;;;;;;;;;;11.10;74.30;;;10.08;nan;96726.22;4994476;28;19928;-89
2023/04/28 10:01:43;;;;;;;;;;;11.10;74.20;;;10.08;nan;96719.91;4994300;28;19922;-86
2023/04/28 10:04:13;;;;;;;;;;;11.10;74.30;;;10.06;nan;96722.91;5010139;28;19921;-87
2023/04/28 10:06:41;;;;;;;;;;;11.10;74.20;;;10.04;nan;96725.06;5010551;28;19921;-87
2023/04/28 10:09:11;;;;;;;;;;;11.10;74.20;;;10.03;nan;96722.59;4995619;28;19927;-87
2023/04/28 10:11:39;;;;;;;;;;;11.10;74.40;;;10.01;nan;96722.84;5014071;28;19928;-88
2023/04/28 10:14:07;;;;;;;;;;;11.00;74.30;;;10.00;nan;96720.38;4996641;28;19955;-87
2023/04/28 10:16:35;;;;;;;;;;;11.00;74.20;;;9.96;nan;96720.88;4997475;28;19925;-87
2023/04/28 10:19:03;;;;;;;;;;;11.00;74.40;;;9.95;nan;96727.44;4981472;28;20202;-87
2023/04/28 10:21:33;;;;;;;;;;;11.00;74.50;;;9.94;nan;96719.47;5013994;28;19928;-88
2023/04/28 10:24:07;;;;;;;;;;;11.00;74.50;;;9.93;nan;96721.41;4996983;28;19928;-88
2023/04/28 10:27:15;;;;;;;;;;;11.00;74.70;;;9.93;nan;96713.19;4981355;28;19925;-88
2023/04/28 10:29:43;;;;;;;;;;;11.00;74.70;;;9.94;nan;96708.53;4997718;28;19928;-87
2023/04/28 10:32:18;;;;;;;;;;;11.00;74.60;;;9.92;nan;96706.06;4997288;28;19943;-87
2023/04/28 10:34:47;;;;;;;;;;;11.00;74.80;;;9.94;nan;96703.06;4996733;28;19944;-87
2023/04/28 10:37:18;;;;;;;;;;;11.00;74.80;;;9.95;nan;96696.53;4997495;28;19921;-87
2023/04/28 10:40:23;;;;;;;;;;;11.00;74.80;;;9.94;nan;96698.41;4997296;28;19922;-86
2023/04/28 10:42:52;;;;;;;;;;;11.00;74.70;;;9.93;nan;96696.78;4981221;28;19921;-86
2023/04/28 10:45:59;;;;;;;;;;;11.00;74.60;;;9.92;nan;96688.81;4996641;28;19927;-87
2023/04/28 10:48:55;;;;;;;;;;;10.90;74.80;;;9.90;nan;96686.34;4980413;28;19925;-87
2023/04/28 10:51:33;;;;;;;;;;;10.90;74.80;;;9.89;nan;96679.22;4996731;28;20124;-87
2023/04/28 10:54:15;;;;;;;;;;;10.90;74.80;;;9.89;nan;96686.59;4996551;28;19921;-88
2023/04/28 10:57:15;;;;;;;;;;;10.90;74.80;;;9.90;nan;96680.03;4997043;28;19922;-87
2023/04/28 10:59:43;;;;;;;;;;;10.90;74.90;;;9.88;nan;96674.84;4996798;28;19921;-88
2023/04/28 11:02:39;;;;;;;;;;;10.90;74.90;;;9.89;nan;96668.28;4980806;28;19921;-87
2023/04/28 11:05:12;;;;;;;;;;;10.90;75.00;;;9.90;nan;96666.38;4980210;28;20116;-87
2023/04/28 11:07:40;;;;;;;;;;;10.90;75.00;;;9.89;nan;96671.03;4996820;28;19921;-87
2023/04/28 11:10:10;;;;;;;;;;;10.90;74.90;;;9.89;nan;96661.97;4996823;28;19921;-88
2023/04/28 11:12:39;;;;;;;;;;;10.90;75.10;;;9.87;nan;96656.78;4996616;28;20139;-86
2023/04/28 11:15:14;;;;;;;;;;;10.90;75.00;;;9.85;nan;96653.47;4995916;28;20102;-87
2023/04/28 11:17:42;;;;;;;;;;;10.90;74.90;;;9.85;nan;96658.13;4980302;28;19936;-86
2023/04/28 11:20:13;;;;;;;;;;;10.90;75.00;;;9.83;nan;96650.16;4995992;28;19928;-87
2023/04/28 11:22:41;;;;;;;;;;;10.90;75.00;;;9.83;nan;96656.47;4996650;28;19944;-87